Time;durP1;ratioP1;P1;durP2;ratioP2;P2;SDS_P1;SDS_P2;PMS_P1;PMS_P2;Temp;Humidity;BMP_temperature;BMP_pressure;BME280_temperature;BME280_humidity;BME280_pressure;Samples;Min_cycle;Max_cycle;Signal;HPM_P1;HPM_P2
2020/12/12 16:25:46;;;;;;;7.65;0.85;;;17.90;84.10;;;;;;5081262;27;20376;-49
2020/12/12 16:28:11;;;;;;;8.40;1.15;;;18.10;84.30;;;;;;5085266;28;20039;-54
2020/12/12 16:30:37;;;;;;;3.10;0.60;;;18.30;83.90;;;;;;5086154;28;20040;-53
2020/12/12 16:33:03;;;;;;;2.53;1.15;;;18.40;83.40;;;;;;5084881;28;20040;-51
2020/12/12 16:35:30;;;;;;;3.28;0.77;;;18.40;83.00;;;;;;5085383;28;20047;-56
2020/12/12 16:37:57;;;;;;;4.47;0.75;;;18.50;82.70;;;;;;5056090;28;20048;-54
2020/12/12 16:40:24;;;;;;;2.17;0.65;;;18.60;82.50;;;;;;5014856;28;98512;-51
2020/12/12 16:42:50;;;;;;;6.13;0.85;;;18.60;82.30;;;;;;5044957;28;20033;-55
2020/12/12 16:48:41;;;;;;;1.75;0.60;;;18.20;73.10;;;;;;5109787;27;20357;-57
2020/12/12 16:53:39;;;;;;;2.85;1.05;;;18.10;72.00;;;;;;5040013;27;1009194;-61
2020/12/12 16:56:05;;;;;;;1.80;0.82;;;17.90;73.00;;;;;;5087031;28;20045;-62
2020/12/12 16:58:30;;;;;;;2.33;1.15;;;17.90;73.90;;;;;;5080595;28;65471;-57
2020/12/12 17:00:56;;;;;;;1.98;0.85;;;17.90;73.30;;;;;;5050693;28;20048;-57
2020/12/12 17:03:22;;;;;;;1.00;0.50;;;17.90;73.30;;;;;;5078888;28;20459;-57
2020/12/12 17:05:48;;;;;;;1.58;0.90;;;17.90;73.20;;;;;;5084072;28;20385;-57
2020/12/12 17:08:14;;;;;;;2.65;1.20;;;18.00;73.20;;;;;;5091583;28;20020;-60
2020/12/12 17:10:40;;;;;;;2.65;1.45;;;18.00;73.20;;;;;;5086971;28;20039;-62
2020/12/12 17:13:06;;;;;;;2.72;0.88;;;18.10;73.10;;;;;;5090056;28;20075;-58
2020/12/12 17:15:32;;;;;;;1.98;0.98;;;18.10;73.10;;;;;;5088745;28;20124;-56
2020/12/12 17:17:57;;;;;;;1.52;1.08;;;18.10;73.10;;;;;;5089035;28;20124;-58
2020/12/12 17:20:28;;;;;;;2.10;0.90;;;18.20;73.00;;;;;;5095216;28;20036;-60
2020/12/12 17:22:55;;;;;;;3.53;0.98;;;18.20;73.10;;;;;;5082315;28;20461;-56
2020/12/12 17:25:21;;;;;;;2.70;0.90;;;18.20;73.00;;;;;;5082549;28;20046;-59
2020/12/12 17:27:47;;;;;;;1.90;1.15;;;18.30;72.90;;;;;;5088458;28;20388;-57
2020/12/12 17:30:15;;;;;;;3.65;0.75;;;18.40;72.90;;;;;;5079560;28;20031;-60
2020/12/12 17:32:43;;;;;;;1.73;0.98;;;18.50;72.70;;;;;;5079712;28;20044;-61
2020/12/12 17:35:10;;;;;;;3.50;1.15;;;18.50;72.40;;;;;;5092373;28;20472;-62
2020/12/12 17:37:37;;;;;;;3.88;1.20;;;18.70;72.20;;;;;;5080420;28;20036;-60
2020/12/12 17:42:27;;;;;;;4.68;1.15;;;18.80;77.20;;;;;;5075495;27;20400;-58
2020/12/12 17:44:53;;;;;;;3.33;1.23;;;18.80;78.60;;;;;;5081954;28;20549;-58
2020/12/12 17:47:22;;;;;;;7.63;1.70;;;18.70;79.90;;;;;;5077254;28;20039;-52
2020/12/12 17:49:49;;;;;;;2.90;0.98;;;18.60;80.60;;;;;;5081228;28;20508;-56
2020/12/12 17:52:14;;;;;;;4.20;1.17;;;18.50;80.80;;;;;;5086191;28;20040;-52
2020/12/12 17:54:40;;;;;;;4.35;1.10;;;18.50;80.70;;;;;;5068829;28;20035;-50
2020/12/12 17:57:06;;;;;;;3.55;0.98;;;18.50;80.50;;;;;;5070987;28;20042;-48
2020/12/12 17:59:32;;;;;;;4.32;1.58;;;18.50;81.20;;;;;;5075293;28;20111;-55
2020/12/12 18:01:59;;;;;;;2.15;1.00;;;18.50;80.00;;;;;;5074464;28;20060;-54
2020/12/12 18:04:25;;;;;;;3.90;1.25;;;18.50;80.90;;;;;;5072197;28;20037;-52
2020/12/12 18:06:51;;;;;;;2.08;1.02;;;18.50;81.00;;;;;;5067806;28;20110;-56
2020/12/12 18:09:16;;;;;;;3.22;1.60;;;18.60;81.50;;;;;;5085244;28;20376;-55
2020/12/12 18:11:42;;;;;;;4.80;1.67;;;18.60;81.60;;;;;;5083889;28;20063;-54
2020/12/12 18:14:08;;;;;;;4.10;1.52;;;18.70;82.00;;;;;;5068773;28;20500;-56
2020/12/12 18:16:37;;;;;;;2.80;1.42;;;18.70;82.20;;;;;;5065825;28;20065;-52
2020/12/12 18:19:04;;;;;;;2.17;0.98;;;18.70;82.60;;;;;;5088405;28;20036;-52
2020/12/12 18:21:29;;;;;;;4.93;1.13;;;18.70;82.50;;;;;;5070312;28;20048;-56
2020/12/12 18:23:55;;;;;;;4.03;1.42;;;18.70;82.80;;;;;;5069069;28;20106;-56
2020/12/12 18:26:21;;;;;;;2.20;1.27;;;18.70;82.20;;;;;;5080980;28;20028;-55
2020/12/12 18:28:49;;;;;;;3.35;1.08;;;18.80;82.90;;;;;;5086213;28;20461;-56
2020/12/12 18:31:17;;;;;;;2.60;1.10;;;18.80;83.30;;;;;;5065670;27;20045;-55
2020/12/12 18:33:44;;;;;;;3.28;1.27;;;18.80;83.70;;;;;;5074964;28;20040;-52
2020/12/12 18:36:10;;;;;;;3.35;1.30;;;18.80;84.00;;;;;;5077128;28;20270;-56
2020/12/12 18:38:37;;;;;;;3.25;1.48;;;18.80;84.50;;;;;;5082922;28;20040;-49
2020/12/12 18:41:04;;;;;;;2.47;1.00;;;18.80;84.60;;;;;;5079943;28;20357;-56
2020/12/12 18:43:29;;;;;;;2.15;1.25;;;18.80;84.70;;;;;;5084887;28;20055;-56
2020/12/12 18:45:55;;;;;;;2.55;1.00;;;18.80;84.70;;;;;;5066341;28;20071;-53
2020/12/12 18:48:21;;;;;;;3.65;1.73;;;18.90;84.70;;;;;;5070529;28;20059;-53
2020/12/12 18:50:47;;;;;;;6.05;1.75;;;18.90;85.80;;;;;;5080058;28;20020;-56
2020/12/12 18:53:13;;;;;;;3.88;1.25;;;18.90;86.10;;;;;;5063771;28;20029;-57
2020/12/12 18:55:39;;;;;;;4.53;1.73;;;19.00;85.80;;;;;;5064520;28;20040;-53
2020/12/12 18:58:05;;;;;;;4.13;1.88;;;19.00;87.00;;;;;;5063514;28;20025;-54
2020/12/12 19:00:30;;;;;;;4.40;1.40;;;19.00;87.50;;;;;;5052283;28;20040;-54
2020/12/12 19:02:56;;;;;;;6.18;2.22;;;19.10;87.50;;;;;;5051412;28;20094;-56
2020/12/12 19:05:22;;;;;;;5.57;1.80;;;19.10;87.70;;;;;;5071355;28;20114;-48
2020/12/12 19:07:50;;;;;;;3.55;1.90;;;19.10;86.90;;;;;;5064675;28;20032;-51
2020/12/12 19:10:17;;;;;;;4.90;1.75;;;19.10;85.20;;;;;;5055526;28;20033;-54
2020/12/12 19:12:44;;;;;;;5.72;1.98;;;19.10;85.40;;;;;;5067462;28;20063;-50
2020/12/12 19:15:10;;;;;;;2.92;1.60;;;19.10;85.60;;;;;;5071345;28;20029;-57
2020/12/12 19:17:36;;;;;;;5.93;1.77;;;19.10;87.10;;;;;;5050944;28;20103;-56
2020/12/12 19:20:03;;;;;;;1.90;1.40;;;19.10;88.40;;;;;;5067026;28;20036;-57
2020/12/12 19:22:29;;;;;;;4.45;1.63;;;19.10;87.80;;;;;;5056261;28;20166;-58
2020/12/12 19:24:55;;;;;;;3.60;1.65;;;19.10;87.90;;;;;;5049978;28;20083;-55
2020/12/12 19:27:20;;;;;;;4.07;2.00;;;19.10;88.00;;;;;;5061547;28;20060;-58
2020/12/12 19:29:46;;;;;;;2.95;1.83;;;19.10;87.50;;;;;;5071044;28;20036;-56
2020/12/12 19:32:12;;;;;;;4.85;2.42;;;19.10;87.20;;;;;;5061431;28;20458;-53
2020/12/12 19:34:38;;;;;;;5.93;3.20;;;19.10;84.60;;;;;;5069435;28;20392;-52
2020/12/12 19:37:05;;;;;;;9.07;5.80;;;19.10;85.00;;;;;;5063048;28;20029;-49
2020/12/12 19:39:31;;;;;;;23.35;13.35;;;19.20;86.20;;;;;;5056119;28;20056;-53
2020/12/12 19:41:59;;;;;;;30.45;19.50;;;19.20;87.00;;;;;;5058243;28;20148;-53
2020/12/12 19:44:25;;;;;;;43.25;28.13;;;19.20;86.40;;;;;;5055597;28;20028;-53
2020/12/12 19:46:51;;;;;;;54.28;33.75;;;19.20;86.80;;;;;;5062783;28;20029;-57
2020/12/12 19:49:18;;;;;;;48.42;31.90;;;19.30;87.50;;;;;;5067090;28;20029;-59
2020/12/12 19:51:43;;;;;;;60.55;36.72;;;19.30;87.40;;;;;;5084886;28;20115;-58
2020/12/12 19:54:09;;;;;;;43.85;28.88;;;19.30;88.00;;;;;;5064771;28;20120;-58
2020/12/12 19:56:35;;;;;;;49.30;32.83;;;19.30;87.30;;;;;;5049102;28;20056;-49
2020/12/12 19:59:03;;;;;;;47.70;31.58;;;19.30;87.80;;;;;;5064322;28;20467;-59
2020/12/12 20:01:29;;;;;;;45.78;30.08;;;19.30;87.20;;;;;;5060689;28;20397;-51
2020/12/12 20:03:54;;;;;;;53.75;32.13;;;19.30;87.20;;;;;;5061626;28;20024;-57
2020/12/12 20:06:20;;;;;;;46.70;29.90;;;19.30;86.90;;;;;;5049550;28;20033;-54
2020/12/12 20:08:46;;;;;;;45.55;30.10;;;19.30;86.30;;;;;;5087112;28;20058;-57
2020/12/12 20:11:11;;;;;;;40.80;26.02;;;19.30;86.40;;;;;;5070157;28;20066;-59
2020/12/12 20:13:38;;;;;;;54.58;29.27;;;19.30;86.50;;;;;;5060706;28;20055;-55
2020/12/12 20:16:05;;;;;;;56.13;29.48;;;19.30;86.50;;;;;;5070306;28;20028;-54
2020/12/12 20:18:36;;;;;;;30.52;20.13;;;19.30;86.40;;;;;;5060737;28;20033;-56
2020/12/12 20:21:02;;;;;;;33.63;22.35;;;19.30;85.30;;;;;;5056625;28;20113;-51
2020/12/12 20:23:30;;;;;;;20.33;13.55;;;19.30;85.10;;;;;;5059423;28;20381;-50
2020/12/12 20:25:56;;;;;;;29.92;15.68;;;19.20;82.80;;;;;;5049584;28;20040;-54
2020/12/12 20:28:22;;;;;;;25.98;16.23;;;19.10;82.10;;;;;;5052895;28;20037;-58
2020/12/12 20:30:48;;;;;;;28.25;17.52;;;19.10;82.70;;;;;;5070150;28;20032;-63
2020/12/12 20:33:14;;;;;;;31.30;20.25;;;19.10;84.10;;;;;;5057175;28;20385;-58
2020/12/12 20:35:39;;;;;;;30.90;20.00;;;19.10;84.70;;;;;;5063667;28;20028;-54
2020/12/12 20:38:05;;;;;;;28.35;18.70;;;19.10;85.00;;;;;;5068347;28;20420;-59
2020/12/12 20:40:31;;;;;;;34.47;20.80;;;19.10;85.30;;;;;;5069269;28;20408;-56
2020/12/12 20:42:59;;;;;;;30.10;17.58;;;19.10;85.30;;;;;;5062314;28;20037;-57
2020/12/12 20:45:26;;;;;;;27.33;16.50;;;19.10;84.90;;;;;;5049765;28;20401;-56
2020/12/12 20:47:53;;;;;;;33.80;19.42;;;19.10;84.70;;;;;;5052589;28;20580;-51
2020/12/12 20:50:33;;;;;;;30.05;17.33;;;19.70;85.40;;;;;;5066601;28;20039;-57
2020/12/12 20:53:06;;;;;;;28.13;17.35;;;19.10;85.10;;;;;;5063704;28;20029;-55
2020/12/12 20:55:33;;;;;;;31.45;18.17;;;19.10;85.10;;;;;;5068450;28;20040;-53
2020/12/12 20:57:59;;;;;;;24.35;15.88;;;19.10;85.20;;;;;;5063487;28;20077;-53
2020/12/12 21:00:25;;;;;;;26.92;16.45;;;19.10;84.80;;;;;;5053084;28;20131;-53
2020/12/12 21:02:50;;;;;;;28.80;14.32;;;19.10;85.10;;;;;;5067983;28;20047;-56
2020/12/12 21:05:17;;;;;;;25.48;16.20;;;19.10;84.80;;;;;;5060460;28;20033;-56
2020/12/12 21:07:43;;;;;;;26.60;15.75;;;19.10;84.70;;;;;;5066681;28;20037;-56
2020/12/12 21:10:09;;;;;;;23.27;15.38;;;19.00;84.80;;;;;;5047662;28;20044;-52
2020/12/12 21:12:35;;;;;;;20.70;13.15;;;19.00;85.40;;;;;;5066054;28;20142;-57
2020/12/12 21:15:00;;;;;;;21.13;14.05;;;19.00;84.70;;;;;;5053844;28;20048;-52
2020/12/12 21:17:28;;;;;;;26.08;16.60;;;19.00;84.60;;;;;;5047756;28;20117;-55
2020/12/12 21:19:54;;;;;;;26.65;14.88;;;19.00;84.80;;;;;;5065317;28;20389;-55
2020/12/12 21:22:20;;;;;;;25.67;16.27;;;19.00;84.90;;;;;;5064884;28;20079;-48
2020/12/12 21:24:48;;;;;;;23.48;13.82;;;19.00;84.70;;;;;;5057746;28;20029;-55
2020/12/12 21:27:14;;;;;;;20.20;14.05;;;19.00;84.90;;;;;;5031267;28;20041;-49
2020/12/12 21:29:40;;;;;;;23.60;13.95;;;19.00;84.40;;;;;;5064798;28;20029;-47
2020/12/12 21:32:06;;;;;;;26.27;15.05;;;19.00;84.20;;;;;;5052506;28;20039;-53
2020/12/12 21:34:31;;;;;;;22.50;14.75;;;19.00;84.80;;;;;;5049771;28;20111;-52
2020/12/12 21:36:57;;;;;;;25.58;14.15;;;19.00;84.90;;;;;;5055074;28;20094;-55
2020/12/12 21:39:24;;;;;;;23.38;14.23;;;19.00;84.80;;;;;;5051597;28;20024;-54
2020/12/12 21:41:50;;;;;;;24.35;14.32;;;19.00;84.20;;;;;;5064529;28;20058;-52
2020/12/12 21:44:19;;;;;;;20.63;13.00;;;18.90;83.20;;;;;;5049105;28;20029;-56
2020/12/12 21:46:45;;;;;;;23.27;14.10;;;18.90;84.00;;;;;;5066292;28;20464;-50
2020/12/12 21:49:10;;;;;;;20.15;12.85;;;18.90;84.70;;;;;;5062525;28;20033;-55
2020/12/12 21:51:46;;;;;;;17.60;12.25;;;18.90;84.80;;;;;;5067307;28;20089;-47
2020/12/12 21:54:12;;;;;;;19.77;13.70;;;18.90;84.80;;;;;;5088722;28;20032;-51
2020/12/12 21:56:39;;;;;;;18.20;12.18;;;18.90;84.70;;;;;;5067775;28;20043;-48
2020/12/12 21:59:04;;;;;;;18.52;12.48;;;18.90;84.80;;;;;;5067549;28;20032;-57
2020/12/12 22:01:31;;;;;;;17.75;12.98;;;18.90;84.70;;;;;;5063247;28;20047;-55
2020/12/12 22:04:02;;;;;;;17.27;11.05;;;18.80;84.60;;;;;;5066263;28;20036;-58
2020/12/12 22:06:41;;;;;;;18.63;12.05;;;18.80;84.60;;;;;;5064942;28;20036;-52
2020/12/12 22:09:07;;;;;;;20.05;12.07;;;18.80;84.60;;;;;;5066460;28;20508;-47
2020/12/12 22:11:33;;;;;;;14.95;11.35;;;18.80;84.60;;;;;;5063634;28;20037;-53
2020/12/12 22:14:07;;;;;;;18.67;10.82;;;18.80;84.60;;;;;;5066440;28;20032;-52
2020/12/12 22:16:35;;;;;;;15.70;11.27;;;18.80;84.60;;;;;;5064822;28;20033;-47
2020/12/12 22:19:02;;;;;;;15.68;10.82;;;18.80;84.50;;;;;;5065669;28;20052;-54
2020/12/12 22:21:28;;;;;;;15.20;11.20;;;18.70;84.50;;;;;;5056308;28;20040;-56
2020/12/12 22:23:54;;;;;;;18.30;10.30;;;18.70;84.50;;;;;;5067132;28;20031;-50
2020/12/12 22:26:20;;;;;;;14.52;10.88;;;18.70;84.50;;;;;;5068055;28;20174;-53
2020/12/12 22:28:47;;;;;;;15.10;10.30;;;18.70;84.40;;;;;;5068911;28;20056;-55
2020/12/12 22:31:17;;;;;;;18.17;10.73;;;18.70;84.30;;;;;;5070320;28;20032;-58
2020/12/12 22:33:44;;;;;;;17.27;11.45;;;18.70;84.30;;;;;;5063051;28;20057;-53
2020/12/12 22:36:10;;;;;;;14.30;10.18;;;18.70;84.30;;;;;;5062980;28;20035;-48
2020/12/12 22:38:35;;;;;;;19.38;10.63;;;18.70;82.90;;;;;;5068808;28;20032;-54
2020/12/12 22:41:02;;;;;;;17.08;12.05;;;18.70;84.30;;;;;;5064241;28;20122;-52
2020/12/12 22:43:28;;;;;;;19.83;11.50;;;18.70;84.40;;;;;;5070156;28;20438;-48
2020/12/12 22:45:55;;;;;;;21.17;11.18;;;18.70;83.00;;;;;;5071304;28;20030;-52
2020/12/12 22:48:21;;;;;;;18.38;11.85;;;18.70;84.10;;;;;;5069508;28;20408;-54
2020/12/12 22:50:46;;;;;;;23.45;11.73;;;18.70;84.10;;;;;;5069441;28;20020;-46
2020/12/12 22:53:12;;;;;;;18.42;11.25;;;18.70;84.20;;;;;;5070561;28;20073;-47
2020/12/12 22:55:39;;;;;;;18.92;10.90;;;18.70;84.00;;;;;;5071592;28;20089;-48
2020/12/12 22:58:05;;;;;;;21.27;10.82;;;18.70;84.00;;;;;;5067578;28;20040;-50
2020/12/12 23:00:41;;;;;;;17.80;11.32;;;18.80;84.00;;;;;;5070071;28;20045;-54
2020/12/12 23:03:10;;;;;;;16.88;11.07;;;18.80;84.00;;;;;;5062026;28;20029;-50
2020/12/12 23:05:44;;;;;;;15.95;10.45;;;18.80;83.90;;;;;;5070132;28;20143;-55
2020/12/12 23:08:11;;;;;;;19.90;9.93;;;18.70;84.10;;;;;;5071625;28;20028;-53
2020/12/12 23:10:37;;;;;;;14.73;10.00;;;18.70;84.10;;;;;;5066568;28;20028;-58
2020/12/12 23:13:08;;;;;;;17.70;10.98;;;18.70;84.10;;;;;;5057816;28;20024;-54
2020/12/12 23:15:35;;;;;;;18.42;10.98;;;18.70;84.20;;;;;;5071419;28;20044;-59
2020/12/12 23:18:01;;;;;;;15.80;10.13;;;18.70;84.20;;;;;;5069155;28;20032;-56
2020/12/12 23:20:27;;;;;;;17.15;10.85;;;18.70;84.20;;;;;;5054795;28;20032;-56
2020/12/12 23:22:55;;;;;;;17.75;10.85;;;18.70;84.20;;;;;;5055818;28;20029;-52
2020/12/12 23:25:21;;;;;;;17.25;10.57;;;18.10;83.80;;;;;;5068285;28;20442;-51
2020/12/12 23:27:47;;;;;;;18.67;9.82;;;18.60;84.20;;;;;;5070709;28;20053;-51
2020/12/12 23:30:14;;;;;;;19.98;11.00;;;18.60;84.10;;;;;;5052029;28;20037;-54
2020/12/12 23:32:45;;;;;;;18.83;10.50;;;18.60;84.10;;;;;;5051030;28;20438;-57
2020/12/12 23:35:10;;;;;;;16.17;11.00;;;18.60;84.10;;;;;;5068022;28;20032;-59
2020/12/12 23:37:40;;;;;;;13.02;10.05;;;18.60;84.10;;;;;;5069129;28;20044;-52
2020/12/12 23:40:05;;;;;;;14.95;10.73;;;18.60;84.30;;;;;;5069225;28;20039;-51
2020/12/12 23:42:31;;;;;;;21.05;10.65;;;18.60;84.10;;;;;;5070396;28;20040;-54
2020/12/12 23:44:57;;;;;;;14.95;10.20;;;18.60;84.00;;;;;;5070619;28;20032;-55
2020/12/12 23:47:24;;;;;;;17.40;9.77;;;18.50;84.10;;;;;;5053258;28;20096;-59
2020/12/12 23:49:50;;;;;;;14.63;9.85;;;18.50;83.90;;;;;;5070447;28;20089;-49
2020/12/12 23:52:15;;;;;;;13.57;9.70;;;18.50;84.00;;;;;;5060537;28;20029;-55
2020/12/12 23:54:41;;;;;;;13.48;10.05;;;18.50;83.80;;;;;;5050757;28;20032;-55
2020/12/12 23:57:07;;;;;;;13.40;10.02;;;18.50;83.90;;;;;;5065982;28;20029;-52
2020/12/12 23:59:32;;;;;;;14.75;10.15;;;18.50;83.60;;;;;;5070133;28;20551;-53
